Aeroporto :
LOGIN :

Iscrizione | Disclaimer

   EN    FR    IT 

 










Sommario :    VFR   VFR Marginale   IFR   IFR Intensivo   IFR Molto Intensivo
Visibilità : 
Base nubi : 
>= 8 km
>= 3000ft
5 / 8 km
1000 / 3000 ft
1500m / 5 km
500 / 1000 ft
800 / 1500m
200 / 500 ft
< 800m
< 200 ft
Simboli :   Temporali  Nebbia  Neve Forte  Precipitazioni Forti  Vento > 20 kt
SIGMETs :   Varie  Temporali  Ghiacco  Turbolenza  Onda orograficha  Ceneri Vulcaniche







- Altitudine del aeroporto : 915 ft
- Codice IATA : LUG


LSZA - Lugano

ULTIMO METAR :
  • 161850Z 36007KT 340V040 CAVOK 24/08 Q1014 NOSIG

METARs OBSOLETI :
  • 161820Z 36009KT CAVOK 25/08 Q1014 NOSIG
  • 161750Z 36009KT CAVOK 26/09 Q1014 NOSIG
  • 161720Z 34008KT CAVOK 28/08 Q1014 NOSIG
  • 161650Z 34010KT CAVOK 29/10 Q1013 NOSIG
  • 161620Z 35007KT CAVOK 30/11 Q1013 NOSIG

TAF TAF LSZA
Valido dal 16 a 15 ore il 17 a 00 ore UTC


161425Z 1615/1624 01012KT CAVOK
TEMPO 1615/1618 FEW080
BECMG 1618/1621 VRB03KT
ATIS : +41 22 417 40 88
Nessun NOTAM noto per questo aeroporto.



MetMap, La meteo Aeronautica in un colpo d'occhio ! - Copyright ORBIFLY Dicembre 2007 - Disclaimer

ORBIFLY MET'MAP TEAM :

Programmazione e sviluppo : Alexandra Zaïnal
Concezione e sviluppo : Baudouin d'Aumeries
Co-Programmazione e sviluppo : Marc-Olivier Méhu
Supporto tecnico e logistico : Manuel Goepfert
Aiuto per la traduzione : Arnaldo La Scala

Contatto : metmap@orbifly.com




FONTI E CREDITI :

   NOAA